• Join FlightAware (Why Join?)
  • Login
  • US Flag 
06:08AM EDT


 

Airport Tracker/Info


-or-


 

Live Flight TrackerFlight Track Log ✈ CTL15 ✈ 17-May-2013 ✈ KOSU - KMGY

Flight Track Log - Related Links

Times and Time Zones

All times are in EDT time to prevent confusion due to time zone crossing. See the CTL15 flight status page for this flight to view local times or setup timezone preferences in your user account.

Time Position Orientation Groundspeed Altitude Reporting Facility
EDT Latitude Longitude Course Direction KTS MPH feet Rate Location/Type
07:29PM 40.0758 -83.0631 46° Northeast 98 113 1,100  Level Indianapolis Center
07:30PM 40.1058 -83.0228 46° Northeast 126 145 2,500 960 Climbing Indianapolis Center
07:31PM 40.1139 -83.0111 48° Northeast 122 140 2,800 840 Climbing Indianapolis Center
07:31PM 40.1356 -83.0153 352° North 136 157 3,400 960 Climbing Indianapolis Center
07:32PM 40.1439 -83.0292 308° West 135 155 3,800 840 Climbing Indianapolis Center
07:32PM 40.1406 -83.0678 264° West 148 170 4,300 540 Climbing Indianapolis Center
07:33PM 40.1389 -83.0819 261° West 145 167 4,400 300 Climbing Indianapolis Center
07:33PM 40.1350 -83.1161 262° West 153 176 4,600 360 Climbing Indianapolis Center
07:34PM 40.1331 -83.1383 263° West 150 173 4,800 360 Climbing Indianapolis Center
07:34PM 40.1289 -83.1756 262° West 161 185 5,000 480 Climbing Indianapolis Center
07:35PM 40.1244 -83.2064 259° West 158 182 5,300 480 Climbing Indianapolis Center
07:35PM 40.1206 -83.2344 260° West 162 186 5,500 360 Climbing Indianapolis Center
07:36PM 40.1161 -83.2639 259° West 160 184 5,700 420 Climbing Indianapolis Center
07:36PM 40.1128 -83.2853 258° West 159 183 5,900 180 Climbing Indianapolis Center
07:37PM 40.1108 -83.3236 266° West 162 186 5,900 -120 Level Indianapolis Center
07:37PM 40.1103 -83.3478 268° West 175 201 5,800  Descending Indianapolis Center
07:38PM 40.1106 -83.3886 271° West 171 197 5,900 60 Climbing Indianapolis Center
07:38PM 40.1100 -83.4131 268° West 176 203 5,900  Level Indianapolis Center
07:39PM 40.1092 -83.4531 268° West 175 201 5,900  Level Indianapolis Center
07:39PM 40.1072 -83.4811 265° West 179 206 5,900  Level Indianapolis Center
07:40PM 40.1053 -83.5181 266° West 178 205 5,900  Level Indianapolis Center
07:40PM 40.1025 -83.5458 263° West 177 204 5,900  Level Indianapolis Center
07:41PM 40.0981 -83.5814 261° West 176 203 5,900 -120 Level Indianapolis Center
07:41PM 40.0953 -83.6133 264° West 176 203 5,800 60 Descending Indianapolis Center
07:42PM 40.0939 -83.6444 267° West 175 201 6,000 60 Climbing Indianapolis Center
07:42PM 40.0928 -83.6756 267° West 170 196 5,900 -120 Descending Indianapolis Center
07:43PM 40.0922 -83.7169 269° West 173 199 5,900  Level Indianapolis Center
07:43PM 40.0922 -83.7411 270° West 179 206 5,900 180 Level Indianapolis Center
07:44PM 40.0992 -83.7819 283° West 176 203 6,100 60 Climbing Indianapolis Center
07:44PM 40.1042 -83.8053 286° West 175 201 6,000 -120 Descending Indianapolis Center
07:45PM 40.1131 -83.8431 287° West 176 203 6,000 -120 Level Indianapolis Center
07:46PM 40.1181 -83.8697 284° West 166 191 5,900  Descending Indianapolis Center
07:46PM 40.1256 -83.9000 288° West 169 194 6,000  Climbing Indianapolis Center
07:46PM 40.1289 -83.9203 282° West 153 176 5,900 -120 Descending Indianapolis Center
07:47PM 40.1297 -83.9497 272° West 153 176 5,900  Level Indianapolis Center
07:48PM 40.1267 -83.9800 262° West 138 159 5,900  Level Indianapolis Center
07:48PM 40.1247 -83.9997 263° West 142 163 5,900 60 Level Indianapolis Center
07:49PM 40.1208 -84.0256 259° West 140 161 6,000  Climbing Indianapolis Center
07:49PM 40.1147 -84.0469 250° West 136 157 5,900  Descending Indianapolis Center
07:50PM 40.1006 -84.0722 234° Southwest 145 167 6,000 60 Climbing Indianapolis Center
07:50PM 40.0914 -84.0925 239° Southwest 143 165 6,000 -120 Level Indianapolis Center
07:51PM 40.0756 -84.1261 238° Southwest 166 191 5,900 -120 Descending Indianapolis Center
07:51PM 40.0656 -84.1439 234° Southwest 157 181 5,900  Level Indianapolis Center
07:52PM 40.0394 -84.1569 201° Southwest 161 185 5,900  Level Indianapolis Center
07:52PM 40.0233 -84.1572 181° South 157 181 5,900  Level Indianapolis Center
07:53PM 39.9950 -84.1619 187° South 158 182 5,900  Level Indianapolis Center
07:53PM 39.9714 -84.1622 181° South 158 182 5,900  Level Indianapolis Center
07:54PM 39.9531 -84.1644 185° South 152 175 5,900  Level Indianapolis Center
07:54PM 39.9286 -84.1644 180° South 154 177 5,900  Level Indianapolis Center
07:55PM 39.9092 -84.1642 179° South 157 181 5,900 -540 Level Indianapolis Center
07:55PM 39.8833 -84.1639 180° South 156 180 5,400 -900 Descending Indianapolis Center
07:56PM 39.8672 -84.1639 180° South 185 213 5,100 -780 Descending Indianapolis Center
07:56PM 39.8322 -84.1633 179° South 169 194 4,600 -720 Descending Indianapolis Center
07:57PM 39.8147 -84.1653 185° South 191 220 4,400 -840 Descending Indianapolis Center
07:57PM 39.7806 -84.1658 181° South 179 206 3,800 -900 Descending Indianapolis Center
07:58PM 39.7664 -84.1669 183° South 179 206 3,500 -780 Descending Indianapolis Center
07:58PM 39.7328 -84.1692 183° South 178 205 3,000 -360 Descending Indianapolis Center
08:00PM 39.6836 -84.1806 190° South 139 160 2,900 -300 Descending Indianapolis Center
08:00PM 39.6567 -84.1889 193° South 146 168 2,400 -540 Descending Indianapolis Center
08:02PM 39.6200 -84.2039 197° South 139 160 1,900 -540 Descending Indianapolis Center